sensor_id;sensor_type;location;lat;lon;timestamp;P1;durP1;ratioP1;P2;durP2;ratioP2
55146;SDS011;41039;49.830;23.988;2023-06-22T00:01:45;10.47;;;9.37;;
55146;SDS011;41039;49.830;23.988;2023-06-22T00:04:10;10.53;;;9.07;;
55146;SDS011;41039;49.830;23.988;2023-06-22T00:06:35;10.33;;;8.97;;
55146;SDS011;41039;49.830;23.988;2023-06-22T00:09:00;10.37;;;8.87;;
55146;SDS011;41039;49.830;23.988;2023-06-22T00:11:26;11.77;;;8.85;;
55146;SDS011;41039;49.830;23.988;2023-06-22T00:13:52;10.55;;;8.68;;
55146;SDS011;41039;49.830;23.988;2023-06-22T00:16:18;9.65;;;8.50;;
55146;SDS011;41039;49.830;23.988;2023-06-22T00:18:43;11.43;;;8.67;;
55146;SDS011;41039;49.830;23.988;2023-06-22T00:21:12;9.75;;;8.68;;
55146;SDS011;41039;49.830;23.988;2023-06-22T00:23:37;11.70;;;8.38;;
55146;SDS011;41039;49.830;23.988;2023-06-22T00:26:02;12.73;;;8.20;;
55146;SDS011;41039;49.830;23.988;2023-06-22T00:28:28;12.30;;;8.35;;
55146;SDS011;41039;49.830;23.988;2023-06-22T00:30:54;10.45;;;8.13;;
55146;SDS011;41039;49.830;23.988;2023-06-22T00:33:19;9.55;;;8.48;;
55146;SDS011;41039;49.830;23.988;2023-06-22T00:35:44;9.07;;;8.07;;
55146;SDS011;41039;49.830;23.988;2023-06-22T00:38:09;10.63;;;8.13;;
55146;SDS011;41039;49.830;23.988;2023-06-22T00:40:35;9.93;;;8.50;;
55146;SDS011;41039;49.830;23.988;2023-06-22T00:43:00;10.30;;;8.05;;
55146;SDS011;41039;49.830;23.988;2023-06-22T00:45:26;9.23;;;7.93;;
55146;SDS011;41039;49.830;23.988;2023-06-22T00:47:52;10.20;;;8.70;;
55146;SDS011;41039;49.830;23.988;2023-06-22T00:50:18;9.88;;;8.13;;
55146;SDS011;41039;49.830;23.988;2023-06-22T00:52:45;9.43;;;7.75;;
55146;SDS011;41039;49.830;23.988;2023-06-22T00:55:11;10.60;;;8.68;;
55146;SDS011;41039;49.830;23.988;2023-06-22T00:57:36;10.88;;;8.05;;
55146;SDS011;41039;49.830;23.988;2023-06-22T01:00:02;11.40;;;8.48;;
55146;SDS011;41039;49.830;23.988;2023-06-22T01:02:31;11.10;;;7.97;;
55146;SDS011;41039;49.830;23.988;2023-06-22T01:04:56;10.85;;;8.68;;
55146;SDS011;41039;49.830;23.988;2023-06-22T01:12:30;9.18;;;8.00;;
55146;SDS011;41039;49.830;23.988;2023-06-22T01:14:58;9.95;;;8.45;;
55146;SDS011;41039;49.830;23.988;2023-06-22T01:17:25;9.63;;;8.43;;
55146;SDS011;41039;49.830;23.988;2023-06-22T01:19:54;9.55;;;8.07;;
55146;SDS011;41039;49.830;23.988;2023-06-22T01:22:26;8.85;;;7.85;;
55146;SDS011;41039;49.830;23.988;2023-06-22T01:25:05;8.88;;;7.72;;
55146;SDS011;41039;49.830;23.988;2023-06-22T01:27:35;10.27;;;8.25;;
55146;SDS011;41039;49.830;23.988;2023-06-22T01:30:02;10.25;;;8.35;;
55146;SDS011;41039;49.830;23.988;2023-06-22T01:32:30;9.80;;;7.78;;
55146;SDS011;41039;49.830;23.988;2023-06-22T01:34:57;12.00;;;8.75;;
55146;SDS011;41039;49.830;23.988;2023-06-22T01:37:23;9.55;;;8.60;;
55146;SDS011;41039;49.830;23.988;2023-06-22T01:39:49;11.20;;;8.73;;
55146;SDS011;41039;49.830;23.988;2023-06-22T01:42:14;15.88;;;8.55;;
55146;SDS011;41039;49.830;23.988;2023-06-22T01:44:39;12.30;;;8.90;;
55146;SDS011;41039;49.830;23.988;2023-06-22T01:47:05;9.27;;;8.27;;
55146;SDS011;41039;49.830;23.988;2023-06-22T01:49:31;12.38;;;9.35;;
55146;SDS011;41039;49.830;23.988;2023-06-22T01:51:56;10.00;;;8.20;;
55146;SDS011;41039;49.830;23.988;2023-06-22T01:54:22;11.02;;;8.65;;
55146;SDS011;41039;49.830;23.988;2023-06-22T01:56:47;11.43;;;8.48;;
55146;SDS011;41039;49.830;23.988;2023-06-22T01:59:34;12.25;;;8.63;;
55146;SDS011;41039;49.830;23.988;2023-06-22T02:02:02;10.40;;;8.38;;
55146;SDS011;41039;49.830;23.988;2023-06-22T02:04:46;9.45;;;7.78;;
55146;SDS011;41039;49.830;23.988;2023-06-22T02:09:38;9.32;;;8.10;;
55146;SDS011;41039;49.830;23.988;2023-06-22T02:12:03;10.23;;;8.38;;
55146;SDS011;41039;49.830;23.988;2023-06-22T02:14:29;9.82;;;7.88;;
55146;SDS011;41039;49.830;23.988;2023-06-22T02:16:55;10.32;;;8.25;;
55146;SDS011;41039;49.830;23.988;2023-06-22T02:19:24;11.02;;;8.13;;
55146;SDS011;41039;49.830;23.988;2023-06-22T02:21:50;9.50;;;8.15;;
55146;SDS011;41039;49.830;23.988;2023-06-22T02:24:15;10.45;;;8.65;;
55146;SDS011;41039;49.830;23.988;2023-06-22T02:26:40;12.00;;;8.10;;
55146;SDS011;41039;49.830;23.988;2023-06-22T02:29:07;9.90;;;8.07;;
55146;SDS011;41039;49.830;23.988;2023-06-22T02:31:32;12.63;;;8.77;;
55146;SDS011;41039;49.830;23.988;2023-06-22T02:33:58;10.57;;;8.70;;
55146;SDS011;41039;49.830;23.988;2023-06-22T02:36:24;11.07;;;9.60;;
55146;SDS011;41039;49.830;23.988;2023-06-22T02:38:50;10.32;;;8.00;;
55146;SDS011;41039;49.830;23.988;2023-06-22T02:41:15;10.93;;;8.43;;
55146;SDS011;41039;49.830;23.988;2023-06-22T02:43:44;10.48;;;8.48;;
55146;SDS011;41039;49.830;23.988;2023-06-22T02:46:10;9.38;;;8.20;;
55146;SDS011;41039;49.830;23.988;2023-06-22T02:48:35;14.05;;;9.40;;
55146;SDS011;41039;49.830;23.988;2023-06-22T02:51:01;11.50;;;9.57;;
55146;SDS011;41039;49.830;23.988;2023-06-22T02:53:26;9.67;;;8.43;;
55146;SDS011;41039;49.830;23.988;2023-06-22T02:55:51;13.27;;;8.98;;
55146;SDS011;41039;49.830;23.988;2023-06-22T02:58:16;11.77;;;9.67;;
55146;SDS011;41039;49.830;23.988;2023-06-22T03:00:42;12.48;;;9.70;;
55146;SDS011;41039;49.830;23.988;2023-06-22T03:03:07;13.20;;;9.70;;
55146;SDS011;41039;49.830;23.988;2023-06-22T03:05:32;14.10;;;8.73;;
55146;SDS011;41039;49.830;23.988;2023-06-22T03:08:00;13.30;;;8.85;;
55146;SDS011;41039;49.830;23.988;2023-06-22T03:10:25;11.73;;;9.63;;
55146;SDS011;41039;49.830;23.988;2023-06-22T03:12:51;11.02;;;8.75;;
55146;SDS011;41039;49.830;23.988;2023-06-22T03:15:16;10.23;;;8.57;;
55146;SDS011;41039;49.830;23.988;2023-06-22T03:17:42;12.50;;;9.40;;
55146;SDS011;41039;49.830;23.988;2023-06-22T03:20:08;11.13;;;9.10;;
55146;SDS011;41039;49.830;23.988;2023-06-22T03:22:37;11.90;;;9.43;;
55146;SDS011;41039;49.830;23.988;2023-06-22T03:25:03;11.95;;;8.88;;
55146;SDS011;41039;49.830;23.988;2023-06-22T03:27:29;12.60;;;9.38;;
55146;SDS011;41039;49.830;23.988;2023-06-22T03:29:56;13.30;;;9.45;;
55146;SDS011;41039;49.830;23.988;2023-06-22T03:32:21;11.27;;;9.27;;
55146;SDS011;41039;49.830;23.988;2023-06-22T03:34:47;15.53;;;9.90;;
55146;SDS011;41039;49.830;23.988;2023-06-22T03:37:13;11.10;;;9.10;;
55146;SDS011;41039;49.830;23.988;2023-06-22T03:39:39;13.90;;;12.35;;
55146;SDS011;41039;49.830;23.988;2023-06-22T03:42:04;12.32;;;9.05;;
55146;SDS011;41039;49.830;23.988;2023-06-22T03:44:29;12.15;;;9.00;;
55146;SDS011;41039;49.830;23.988;2023-06-22T03:46:55;15.30;;;10.20;;
55146;SDS011;41039;49.830;23.988;2023-06-22T03:49:20;15.57;;;9.75;;
55146;SDS011;41039;49.830;23.988;2023-06-22T03:51:45;12.60;;;9.38;;
55146;SDS011;41039;49.830;23.988;2023-06-22T03:54:10;12.87;;;9.17;;
55146;SDS011;41039;49.830;23.988;2023-06-22T03:56:36;11.57;;;9.37;;
55146;SDS011;41039;49.830;23.988;2023-06-22T03:59:02;12.30;;;9.30;;
55146;SDS011;41039;49.830;23.988;2023-06-22T04:01:27;14.03;;;9.70;;
55146;SDS011;41039;49.830;23.988;2023-06-22T04:03:52;13.40;;;9.23;;
55146;SDS011;41039;49.830;23.988;2023-06-22T04:06:17;12.25;;;9.18;;
55146;SDS011;41039;49.830;23.988;2023-06-22T04:08:44;12.85;;;9.55;;
55146;SDS011;41039;49.830;23.988;2023-06-22T04:11:13;12.63;;;9.73;;
55146;SDS011;41039;49.830;23.988;2023-06-22T04:13:38;10.50;;;8.83;;
55146;SDS011;41039;49.830;23.988;2023-06-22T04:16:03;12.47;;;8.83;;
55146;SDS011;41039;49.830;23.988;2023-06-22T04:18:29;13.13;;;8.93;;
55146;SDS011;41039;49.830;23.988;2023-06-22T04:20:54;13.95;;;9.05;;
55146;SDS011;41039;49.830;23.988;2023-06-22T04:23:19;10.85;;;8.98;;
55146;SDS011;41039;49.830;23.988;2023-06-22T04:25:45;12.87;;;8.80;;
55146;SDS011;41039;49.830;23.988;2023-06-22T04:28:10;11.65;;;8.65;;
55146;SDS011;41039;49.830;23.988;2023-06-22T04:30:37;13.38;;;9.00;;
55146;SDS011;41039;49.830;23.988;2023-06-22T04:33:11;12.43;;;8.93;;
55146;SDS011;41039;49.830;23.988;2023-06-22T04:35:36;12.03;;;8.73;;
55146;SDS011;41039;49.830;23.988;2023-06-22T04:38:01;12.00;;;8.73;;
55146;SDS011;41039;49.830;23.988;2023-06-22T04:40:28;17.45;;;8.75;;
55146;SDS011;41039;49.830;23.988;2023-06-22T04:42:53;12.53;;;8.33;;
55146;SDS011;41039;49.830;23.988;2023-06-22T04:45:19;10.57;;;8.57;;
55146;SDS011;41039;49.830;23.988;2023-06-22T04:47:45;10.15;;;8.50;;
55146;SDS011;41039;49.830;23.988;2023-06-22T04:50:13;9.40;;;7.80;;
55146;SDS011;41039;49.830;23.988;2023-06-22T04:52:39;14.65;;;10.80;;
55146;SDS011;41039;49.830;23.988;2023-06-22T04:55:04;11.63;;;7.90;;
55146;SDS011;41039;49.830;23.988;2023-06-22T04:57:29;10.52;;;7.68;;
55146;SDS011;41039;49.830;23.988;2023-06-22T05:00:01;10.23;;;8.38;;
55146;SDS011;41039;49.830;23.988;2023-06-22T05:02:37;11.40;;;8.02;;
55146;SDS011;41039;49.830;23.988;2023-06-22T05:05:04;12.40;;;7.82;;
55146;SDS011;41039;49.830;23.988;2023-06-22T05:07:32;11.13;;;8.25;;
55146;SDS011;41039;49.830;23.988;2023-06-22T05:09:58;9.30;;;7.55;;
55146;SDS011;41039;49.830;23.988;2023-06-22T05:12:23;10.77;;;7.50;;
55146;SDS011;41039;49.830;23.988;2023-06-22T05:14:48;10.07;;;7.55;;
55146;SDS011;41039;49.830;23.988;2023-06-22T05:17:13;12.17;;;7.73;;
55146;SDS011;41039;49.830;23.988;2023-06-22T05:19:39;12.18;;;7.78;;
55146;SDS011;41039;49.830;23.988;2023-06-22T05:22:04;10.60;;;7.78;;
55146;SDS011;41039;49.830;23.988;2023-06-22T05:24:31;11.50;;;7.30;;
55146;SDS011;41039;49.830;23.988;2023-06-22T05:26:56;9.23;;;7.93;;
55146;SDS011;41039;49.830;23.988;2023-06-22T05:29:21;15.40;;;8.53;;
55146;SDS011;41039;49.830;23.988;2023-06-22T05:31:47;10.13;;;7.00;;
55146;SDS011;41039;49.830;23.988;2023-06-22T05:34:12;11.52;;;8.18;;
55146;SDS011;41039;49.830;23.988;2023-06-22T05:36:38;10.73;;;7.70;;
55146;SDS011;41039;49.830;23.988;2023-06-22T05:39:10;11.65;;;7.28;;
55146;SDS011;41039;49.830;23.988;2023-06-22T05:41:37;13.20;;;7.70;;
55146;SDS011;41039;49.830;23.988;2023-06-22T05:44:02;9.03;;;7.30;;
55146;SDS011;41039;49.830;23.988;2023-06-22T05:46:28;11.00;;;7.93;;
55146;SDS011;41039;49.830;23.988;2023-06-22T05:48:53;11.50;;;8.53;;
55146;SDS011;41039;49.830;23.988;2023-06-22T05:51:18;9.30;;;7.50;;
55146;SDS011;41039;49.830;23.988;2023-06-22T05:53:44;9.90;;;8.27;;
55146;SDS011;41039;49.830;23.988;2023-06-22T05:56:11;12.02;;;7.82;;
55146;SDS011;41039;49.830;23.988;2023-06-22T05:58:36;12.75;;;7.35;;
55146;SDS011;41039;49.830;23.988;2023-06-22T06:01:02;14.27;;;8.00;;
55146;SDS011;41039;49.830;23.988;2023-06-22T06:03:27;15.48;;;7.65;;
55146;SDS011;41039;49.830;23.988;2023-06-22T06:05:53;10.55;;;6.95;;
55146;SDS011;41039;49.830;23.988;2023-06-22T06:08:19;10.68;;;7.13;;
55146;SDS011;41039;49.830;23.988;2023-06-22T06:10:44;11.20;;;7.43;;
55146;SDS011;41039;49.830;23.988;2023-06-22T06:13:09;12.90;;;8.18;;
55146;SDS011;41039;49.830;23.988;2023-06-22T06:15:34;12.10;;;6.83;;
55146;SDS011;41039;49.830;23.988;2023-06-22T06:18:00;13.27;;;7.00;;
55146;SDS011;41039;49.830;23.988;2023-06-22T06:20:25;11.90;;;8.15;;
55146;SDS011;41039;49.830;23.988;2023-06-22T06:22:52;10.70;;;7.10;;
55146;SDS011;41039;49.830;23.988;2023-06-22T06:25:18;23.20;;;11.80;;
55146;SDS011;41039;49.830;23.988;2023-06-22T06:27:48;12.07;;;7.30;;
55146;SDS011;41039;49.830;23.988;2023-06-22T06:30:15;11.57;;;7.57;;
55146;SDS011;41039;49.830;23.988;2023-06-22T06:32:40;10.65;;;7.32;;
55146;SDS011;41039;49.830;23.988;2023-06-22T06:35:06;14.93;;;7.00;;
55146;SDS011;41039;49.830;23.988;2023-06-22T06:37:32;17.23;;;7.28;;
55146;SDS011;41039;49.830;23.988;2023-06-22T06:39:58;14.32;;;8.95;;
55146;SDS011;41039;49.830;23.988;2023-06-22T06:42:23;9.27;;;6.45;;
55146;SDS011;41039;49.830;23.988;2023-06-22T06:44:49;10.63;;;6.88;;
55146;SDS011;41039;49.830;23.988;2023-06-22T06:47:15;10.43;;;7.53;;
55146;SDS011;41039;49.830;23.988;2023-06-22T06:49:40;8.85;;;7.45;;
55146;SDS011;41039;49.830;23.988;2023-06-22T06:52:05;9.07;;;7.43;;
55146;SDS011;41039;49.830;23.988;2023-06-22T06:54:31;9.63;;;7.75;;
55146;SDS011;41039;49.830;23.988;2023-06-22T06:56:56;7.93;;;6.60;;
55146;SDS011;41039;49.830;23.988;2023-06-22T06:59:21;11.93;;;6.45;;
55146;SDS011;41039;49.830;23.988;2023-06-22T07:01:47;10.32;;;6.60;;
55146;SDS011;41039;49.830;23.988;2023-06-22T07:04:13;8.43;;;6.72;;
55146;SDS011;41039;49.830;23.988;2023-06-22T07:06:38;7.80;;;6.30;;
55146;SDS011;41039;49.830;23.988;2023-06-22T07:09:04;9.50;;;7.18;;
55146;SDS011;41039;49.830;23.988;2023-06-22T07:11:29;9.50;;;6.22;;
55146;SDS011;41039;49.830;23.988;2023-06-22T07:13:54;10.87;;;7.17;;
55146;SDS011;41039;49.830;23.988;2023-06-22T07:16:19;7.18;;;6.15;;
55146;SDS011;41039;49.830;23.988;2023-06-22T07:18:45;9.68;;;6.53;;
55146;SDS011;41039;49.830;23.988;2023-06-22T07:21:10;8.53;;;6.57;;
55146;SDS011;41039;49.830;23.988;2023-06-22T07:23:35;8.48;;;6.45;;
55146;SDS011;41039;49.830;23.988;2023-06-22T07:26:00;9.23;;;7.32;;
55146;SDS011;41039;49.830;23.988;2023-06-22T07:28:31;10.05;;;7.40;;
55146;SDS011;41039;49.830;23.988;2023-06-22T07:31:01;8.48;;;7.47;;
55146;SDS011;41039;49.830;23.988;2023-06-22T07:33:27;9.18;;;6.47;;
55146;SDS011;41039;49.830;23.988;2023-06-22T07:35:52;8.98;;;6.28;;
55146;SDS011;41039;49.830;23.988;2023-06-22T07:38:18;10.73;;;7.10;;
55146;SDS011;41039;49.830;23.988;2023-06-22T07:40:43;8.63;;;6.30;;
55146;SDS011;41039;49.830;23.988;2023-06-22T07:43:09;8.93;;;6.90;;
55146;SDS011;41039;49.830;23.988;2023-06-22T07:45:34;8.70;;;7.13;;
55146;SDS011;41039;49.830;23.988;2023-06-22T07:48:00;9.98;;;6.50;;
55146;SDS011;41039;49.830;23.988;2023-06-22T07:50:25;8.82;;;7.38;;
55146;SDS011;41039;49.830;23.988;2023-06-22T07:52:51;7.03;;;6.32;;
55146;SDS011;41039;49.830;23.988;2023-06-22T07:55:17;7.28;;;6.53;;
55146;SDS011;41039;49.830;23.988;2023-06-22T07:57:43;7.28;;;6.43;;
55146;SDS011;41039;49.830;23.988;2023-06-22T08:00:08;10.53;;;6.53;;
55146;SDS011;41039;49.830;23.988;2023-06-22T08:02:41;6.72;;;5.72;;
55146;SDS011;41039;49.830;23.988;2023-06-22T08:05:07;6.47;;;5.38;;
55146;SDS011;41039;49.830;23.988;2023-06-22T08:07:33;10.32;;;7.00;;
55146;SDS011;41039;49.830;23.988;2023-06-22T08:09:58;8.70;;;6.28;;
55146;SDS011;41039;49.830;23.988;2023-06-22T08:12:24;7.77;;;6.57;;
55146;SDS011;41039;49.830;23.988;2023-06-22T08:14:49;8.38;;;6.32;;
55146;SDS011;41039;49.830;23.988;2023-06-22T08:17:15;9.07;;;5.93;;
55146;SDS011;41039;49.830;23.988;2023-06-22T08:19:40;7.53;;;5.88;;
55146;SDS011;41039;49.830;23.988;2023-06-22T08:22:06;7.10;;;6.20;;
55146;SDS011;41039;49.830;23.988;2023-06-22T08:24:31;8.48;;;6.47;;
55146;SDS011;41039;49.830;23.988;2023-06-22T08:26:56;6.95;;;6.20;;
55146;SDS011;41039;49.830;23.988;2023-06-22T08:29:21;8.70;;;6.37;;
55146;SDS011;41039;49.830;23.988;2023-06-22T08:31:47;6.47;;;5.75;;
55146;SDS011;41039;49.830;23.988;2023-06-22T08:34:12;8.07;;;5.93;;
55146;SDS011;41039;49.830;23.988;2023-06-22T08:36:37;9.57;;;6.53;;
55146;SDS011;41039;49.830;23.988;2023-06-22T08:39:10;9.65;;;7.85;;
55146;SDS011;41039;49.830;23.988;2023-06-22T08:41:35;10.45;;;6.90;;
55146;SDS011;41039;49.830;23.988;2023-06-22T08:44:00;8.63;;;6.03;;
55146;SDS011;41039;49.830;23.988;2023-06-22T08:46:25;9.43;;;6.97;;
55146;SDS011;41039;49.830;23.988;2023-06-22T08:48:55;8.63;;;6.65;;
55146;SDS011;41039;49.830;23.988;2023-06-22T08:51:21;9.25;;;6.30;;
55146;SDS011;41039;49.830;23.988;2023-06-22T08:53:47;7.93;;;6.15;;
55146;SDS011;41039;49.830;23.988;2023-06-22T08:56:12;7.72;;;6.13;;
55146;SDS011;41039;49.830;23.988;2023-06-22T08:58:37;7.80;;;6.30;;
55146;SDS011;41039;49.830;23.988;2023-06-22T09:01:02;12.40;;;8.05;;
55146;SDS011;41039;49.830;23.988;2023-06-22T09:03:29;8.13;;;5.93;;
55146;SDS011;41039;49.830;23.988;2023-06-22T09:05:54;8.30;;;5.67;;
55146;SDS011;41039;49.830;23.988;2023-06-22T09:08:19;7.57;;;6.77;;
55146;SDS011;41039;49.830;23.988;2023-06-22T09:10:44;8.45;;;6.05;;
55146;SDS011;41039;49.830;23.988;2023-06-22T09:13:10;18.40;;;7.17;;
55146;SDS011;41039;49.830;23.988;2023-06-22T09:15:35;8.45;;;6.50;;
55146;SDS011;41039;49.830;23.988;2023-06-22T09:18:00;9.40;;;7.47;;
55146;SDS011;41039;49.830;23.988;2023-06-22T09:20:25;6.95;;;6.03;;
55146;SDS011;41039;49.830;23.988;2023-06-22T09:22:53;9.75;;;6.13;;
55146;SDS011;41039;49.830;23.988;2023-06-22T09:25:26;7.28;;;6.20;;
55146;SDS011;41039;49.830;23.988;2023-06-22T09:27:51;8.00;;;6.27;;
55146;SDS011;41039;49.830;23.988;2023-06-22T09:30:16;8.90;;;7.47;;
55146;SDS011;41039;49.830;23.988;2023-06-22T09:32:41;10.13;;;6.50;;
55146;SDS011;41039;49.830;23.988;2023-06-22T09:35:08;7.82;;;6.72;;
55146;SDS011;41039;49.830;23.988;2023-06-22T09:37:34;9.07;;;7.43;;
55146;SDS011;41039;49.830;23.988;2023-06-22T09:39:59;8.93;;;6.90;;
55146;SDS011;41039;49.830;23.988;2023-06-22T09:42:25;9.77;;;6.60;;
55146;SDS011;41039;49.830;23.988;2023-06-22T09:44:50;9.37;;;7.93;;
55146;SDS011;41039;49.830;23.988;2023-06-22T09:47:15;10.38;;;7.38;;
55146;SDS011;41039;49.830;23.988;2023-06-22T09:49:40;11.00;;;7.33;;
55146;SDS011;41039;49.830;23.988;2023-06-22T09:52:06;11.80;;;7.50;;
55146;SDS011;41039;49.830;23.988;2023-06-22T09:54:31;8.95;;;6.85;;
55146;SDS011;41039;49.830;23.988;2023-06-22T09:56:56;8.77;;;6.80;;
55146;SDS011;41039;49.830;23.988;2023-06-22T09:59:22;10.90;;;6.93;;
55146;SDS011;41039;49.830;23.988;2023-06-22T10:01:47;11.18;;;8.00;;
55146;SDS011;41039;49.830;23.988;2023-06-22T10:04:12;12.27;;;8.57;;
55146;SDS011;41039;49.830;23.988;2023-06-22T10:06:37;9.87;;;7.80;;
55146;SDS011;41039;49.830;23.988;2023-06-22T10:09:05;8.88;;;7.75;;
55146;SDS011;41039;49.830;23.988;2023-06-22T10:11:30;11.95;;;8.40;;
55146;SDS011;41039;49.830;23.988;2023-06-22T10:13:56;12.85;;;7.80;;
55146;SDS011;41039;49.830;23.988;2023-06-22T10:16:23;8.45;;;7.25;;
55146;SDS011;41039;49.830;23.988;2023-06-22T10:18:48;9.38;;;8.48;;
55146;SDS011;41039;49.830;23.988;2023-06-22T10:21:14;12.50;;;8.47;;
55146;SDS011;41039;49.830;23.988;2023-06-22T10:23:39;13.13;;;8.18;;
55146;SDS011;41039;49.830;23.988;2023-06-22T10:26:04;8.53;;;7.70;;
55146;SDS011;41039;49.830;23.988;2023-06-22T10:28:29;10.47;;;8.10;;
55146;SDS011;41039;49.830;23.988;2023-06-22T10:30:54;15.30;;;9.17;;
55146;SDS011;41039;49.830;23.988;2023-06-22T10:33:20;13.90;;;9.03;;
55146;SDS011;41039;49.830;23.988;2023-06-22T10:35:45;10.50;;;7.72;;
55146;SDS011;41039;49.830;23.988;2023-06-22T10:38:10;8.87;;;7.90;;
55146;SDS011;41039;49.830;23.988;2023-06-22T10:40:36;12.20;;;8.57;;
55146;SDS011;41039;49.830;23.988;2023-06-22T10:43:01;8.50;;;7.65;;
55146;SDS011;41039;49.830;23.988;2023-06-22T10:45:26;10.13;;;8.23;;
55146;SDS011;41039;49.830;23.988;2023-06-22T10:47:52;9.60;;;8.13;;
55146;SDS011;41039;49.830;23.988;2023-06-22T10:50:18;8.60;;;7.65;;
55146;SDS011;41039;49.830;23.988;2023-06-22T10:52:43;12.75;;;8.88;;
55146;SDS011;41039;49.830;23.988;2023-06-22T10:55:09;13.55;;;7.45;;
55146;SDS011;41039;49.830;23.988;2023-06-22T10:57:35;9.55;;;8.10;;
55146;SDS011;41039;49.830;23.988;2023-06-22T11:00:01;12.18;;;8.65;;
55146;SDS011;41039;49.830;23.988;2023-06-22T11:02:26;8.50;;;7.60;;
55146;SDS011;41039;49.830;23.988;2023-06-22T11:04:53;9.73;;;7.40;;
55146;SDS011;41039;49.830;23.988;2023-06-22T11:07:18;8.65;;;7.63;;
55146;SDS011;41039;49.830;23.988;2023-06-22T11:09:43;10.43;;;8.57;;
55146;SDS011;41039;49.830;23.988;2023-06-22T11:12:09;11.63;;;8.57;;
55146;SDS011;41039;49.830;23.988;2023-06-22T11:14:34;9.93;;;8.73;;
55146;SDS011;41039;49.830;23.988;2023-06-22T11:16:59;9.67;;;8.33;;
55146;SDS011;41039;49.830;23.988;2023-06-22T11:19:24;11.10;;;8.50;;
55146;SDS011;41039;49.830;23.988;2023-06-22T11:21:50;9.93;;;9.03;;
55146;SDS011;41039;49.830;23.988;2023-06-22T11:24:15;10.48;;;8.85;;
55146;SDS011;41039;49.830;23.988;2023-06-22T11:26:41;9.75;;;8.68;;
55146;SDS011;41039;49.830;23.988;2023-06-22T11:29:06;10.83;;;8.60;;
55146;SDS011;41039;49.830;23.988;2023-06-22T11:31:33;17.48;;;10.35;;
55146;SDS011;41039;49.830;23.988;2023-06-22T11:33:59;11.30;;;9.25;;
55146;SDS011;41039;49.830;23.988;2023-06-22T11:36:24;12.30;;;9.47;;
55146;SDS011;41039;49.830;23.988;2023-06-22T11:38:50;12.98;;;9.15;;
55146;SDS011;41039;49.830;23.988;2023-06-22T11:41:15;12.63;;;9.47;;
55146;SDS011;41039;49.830;23.988;2023-06-22T11:43:40;12.25;;;9.35;;
55146;SDS011;41039;49.830;23.988;2023-06-22T11:46:05;10.32;;;9.32;;
55146;SDS011;41039;49.830;23.988;2023-06-22T11:48:31;11.00;;;8.43;;
55146;SDS011;41039;49.830;23.988;2023-06-22T11:50:56;10.13;;;8.95;;
55146;SDS011;41039;49.830;23.988;2023-06-22T11:53:23;11.15;;;9.45;;
55146;SDS011;41039;49.830;23.988;2023-06-22T11:55:48;12.40;;;9.32;;
55146;SDS011;41039;49.830;23.988;2023-06-22T11:58:14;10.68;;;9.48;;
55146;SDS011;41039;49.830;23.988;2023-06-22T12:00:39;10.47;;;9.37;;
55146;SDS011;41039;49.830;23.988;2023-06-22T12:03:05;13.75;;;9.52;;
55146;SDS011;41039;49.830;23.988;2023-06-22T12:05:30;10.40;;;9.40;;
55146;SDS011;41039;49.830;23.988;2023-06-22T12:07:55;10.10;;;9.10;;
55146;SDS011;41039;49.830;23.988;2023-06-22T12:10:21;9.77;;;8.82;;
55146;SDS011;41039;49.830;23.988;2023-06-22T12:12:47;12.30;;;8.75;;
55146;SDS011;41039;49.830;23.988;2023-06-22T12:15:12;11.80;;;9.47;;
55146;SDS011;41039;49.830;23.988;2023-06-22T12:17:38;10.25;;;9.18;;
55146;SDS011;41039;49.830;23.988;2023-06-22T12:20:03;10.13;;;9.20;;
55146;SDS011;41039;49.830;23.988;2023-06-22T12:22:31;9.95;;;8.50;;
55146;SDS011;41039;49.830;23.988;2023-06-22T12:24:56;10.00;;;8.95;;
55146;SDS011;41039;49.830;23.988;2023-06-22T12:27:21;9.13;;;8.10;;
55146;SDS011;41039;49.830;23.988;2023-06-22T12:29:47;9.32;;;8.40;;
55146;SDS011;41039;49.830;23.988;2023-06-22T12:32:12;9.52;;;8.13;;
55146;SDS011;41039;49.830;23.988;2023-06-22T12:34:38;9.07;;;8.07;;
55146;SDS011;41039;49.830;23.988;2023-06-22T12:37:04;10.88;;;8.50;;
55146;SDS011;41039;49.830;23.988;2023-06-22T12:39:30;10.82;;;9.00;;
55146;SDS011;41039;49.830;23.988;2023-06-22T12:41:55;8.80;;;7.90;;
55146;SDS011;41039;49.830;23.988;2023-06-22T12:44:21;9.23;;;7.87;;
55146;SDS011;41039;49.830;23.988;2023-06-22T12:46:46;8.77;;;7.87;;
55146;SDS011;41039;49.830;23.988;2023-06-22T12:49:11;9.18;;;8.18;;
55146;SDS011;41039;49.830;23.988;2023-06-22T12:51:39;10.13;;;7.57;;
55146;SDS011;41039;49.830;23.988;2023-06-22T12:54:04;8.18;;;7.25;;
55146;SDS011;41039;49.830;23.988;2023-06-22T12:56:29;8.97;;;6.90;;
55146;SDS011;41039;49.830;23.988;2023-06-22T12:58:55;9.30;;;7.60;;
55146;SDS011;41039;49.830;23.988;2023-06-22T13:01:20;8.33;;;7.53;;
55146;SDS011;41039;49.830;23.988;2023-06-22T13:03:45;9.20;;;7.80;;
55146;SDS011;41039;49.830;23.988;2023-06-22T13:06:10;9.80;;;7.82;;
55146;SDS011;41039;49.830;23.988;2023-06-22T13:08:36;10.70;;;8.03;;
55146;SDS011;41039;49.830;23.988;2023-06-22T13:11:01;8.20;;;7.40;;
55146;SDS011;41039;49.830;23.988;2023-06-22T13:13:26;8.10;;;6.70;;
55146;SDS011;41039;49.830;23.988;2023-06-22T13:15:54;8.98;;;7.38;;
55146;SDS011;41039;49.830;23.988;2023-06-22T13:18:19;9.02;;;7.60;;
55146;SDS011;41039;49.830;23.988;2023-06-22T13:20:45;9.70;;;7.78;;
55146;SDS011;41039;49.830;23.988;2023-06-22T13:23:10;10.50;;;8.10;;
55146;SDS011;41039;49.830;23.988;2023-06-22T13:25:36;8.77;;;7.80;;
55146;SDS011;41039;49.830;23.988;2023-06-22T13:28:01;10.50;;;8.03;;
55146;SDS011;41039;49.830;23.988;2023-06-22T13:30:26;7.50;;;6.77;;
55146;SDS011;41039;49.830;23.988;2023-06-22T13:32:51;8.27;;;7.00;;
55146;SDS011;41039;49.830;23.988;2023-06-22T13:35:16;11.97;;;8.20;;
55146;SDS011;41039;49.830;23.988;2023-06-22T13:37:42;8.73;;;7.03;;
55146;SDS011;41039;49.830;23.988;2023-06-22T13:40:07;7.03;;;6.33;;
55146;SDS011;41039;49.830;23.988;2023-06-22T13:42:33;9.50;;;7.90;;
55146;SDS011;41039;49.830;23.988;2023-06-22T13:44:58;9.32;;;7.60;;
55146;SDS011;41039;49.830;23.988;2023-06-22T13:47:23;7.97;;;7.05;;
55146;SDS011;41039;49.830;23.988;2023-06-22T13:49:49;10.33;;;7.83;;
55146;SDS011;41039;49.830;23.988;2023-06-22T13:52:14;8.87;;;6.73;;
55146;SDS011;41039;49.830;23.988;2023-06-22T13:54:39;9.80;;;7.45;;
55146;SDS011;41039;49.830;23.988;2023-06-22T13:57:05;8.80;;;7.53;;
55146;SDS011;41039;49.830;23.988;2023-06-22T13:59:30;10.50;;;7.03;;
55146;SDS011;41039;49.830;23.988;2023-06-22T14:01:55;10.03;;;7.67;;
55146;SDS011;41039;49.830;23.988;2023-06-22T14:04:22;8.68;;;7.05;;
55146;SDS011;41039;49.830;23.988;2023-06-22T14:06:48;10.13;;;8.00;;
55146;SDS011;41039;49.830;23.988;2023-06-22T14:09:13;10.40;;;7.40;;
55146;SDS011;41039;49.830;23.988;2023-06-22T14:11:38;10.30;;;7.87;;
55146;SDS011;41039;49.830;23.988;2023-06-22T14:14:03;10.77;;;8.70;;
55146;SDS011;41039;49.830;23.988;2023-06-22T14:16:28;14.13;;;7.53;;
55146;SDS011;41039;49.830;23.988;2023-06-22T14:18:54;9.53;;;8.40;;
55146;SDS011;41039;49.830;23.988;2023-06-22T14:21:19;12.20;;;8.70;;
55146;SDS011;41039;49.830;23.988;2023-06-22T14:23:44;8.70;;;7.80;;
55146;SDS011;41039;49.830;23.988;2023-06-22T14:26:14;8.63;;;7.72;;